Time;durP1;ratioP1;P1;durP2;ratioP2;P2;SDS_P1;SDS_P2;PMS_P1;PMS_P2;Temp;Humidity;BMP_temperature;BMP_pressure;BME280_temperature;BME280_humidity;BME280_pressure;Samples;Min_cycle;Max_cycle;Signal;HPM_P1;HPM_P2
2022/05/09 00:00:34;;;;;;;8.50;6.67;;;;;;;20.79;49.49;100006.59;4138642;28;20233;-28
2022/05/09 00:02:37;;;;;;;7.97;6.90;;;;;;;20.68;49.31;100010.81;4138763;28;20434;-29
2022/05/09 00:04:39;;;;;;;7.13;6.43;;;;;;;20.45;49.98;100011.41;4139156;28;20659;-29
2022/05/09 00:06:41;;;;;;;8.87;6.97;;;;;;;20.17;50.47;100006.34;4134025;28;20236;-28
2022/05/09 00:08:43;;;;;;;8.40;6.70;;;;;;;20.43;50.19;99998.13;4139335;28;20523;-29
2022/05/09 00:10:44;;;;;;;9.07;6.90;;;;;;;20.85;49.16;99997.59;4141420;28;20291;-29
2022/05/09 00:12:46;;;;;;;6.97;6.27;;;;;;;20.18;50.37;100008.00;4140522;28;20279;-34
2022/05/09 00:14:48;;;;;;;8.50;6.53;;;;;;;20.69;49.34;99995.44;4135464;28;20512;-32
2022/05/09 00:16:51;;;;;;;8.47;6.83;;;;;;;19.49;51.38;100008.47;4124423;28;20232;-29
2022/05/09 00:18:52;;;;;;;10.07;7.70;;;;;;;20.04;50.86;99994.59;4124795;28;20296;-29
2022/05/09 00:20:54;;;;;;;8.33;7.53;;;;;;;19.97;50.66;99998.34;4124727;28;20383;-30
2022/05/09 00:22:56;;;;;;;11.27;7.53;;;;;;;20.21;50.71;99988.66;4127745;28;20217;-29
2022/05/09 00:25:01;;;;;;;8.43;7.53;;;;;;;19.78;51.41;99998.22;4140875;28;20292;-29
2022/05/09 00:27:03;;;;;;;9.70;7.97;;;;;;;20.30;50.59;99987.41;4137868;28;20635;-29
2022/05/09 00:29:07;;;;;;;9.63;7.33;;;;;;;20.05;51.00;99990.00;4139011;28;20213;-29
2022/05/09 00:31:08;;;;;;;10.47;7.30;;;;;;;20.05;51.43;99988.13;4141566;28;20370;-29
2022/05/09 00:33:10;;;;;;;8.77;7.43;;;;;;;20.11;51.11;99993.72;4136288;28;20225;-29
2022/05/09 00:35:13;;;;;;;8.53;7.33;;;;;;;19.55;51.95;99998.72;4142238;28;20745;-29
2022/05/09 00:37:15;;;;;;;8.87;7.47;;;;;;;19.63;52.01;99992.28;4141507;28;20237;-29
2022/05/09 00:39:16;;;;;;;12.57;7.57;;;;;;;19.60;52.03;99998.09;4142106;28;20230;-29
2022/05/09 00:41:34;;;;;;;8.10;7.30;;;;;;;19.77;51.64;99983.06;4141997;28;20237;-29
2022/05/09 00:43:38;;;;;;;8.43;7.53;;;;;;;19.20;53.21;100004.41;4139589;28;20343;-29
2022/05/09 00:45:40;;;;;;;9.63;6.90;;;;;;;19.82;52.25;99996.75;4142150;28;20237;-29
2022/05/09 00:47:42;;;;;;;11.33;7.77;;;;;;;20.15;51.60;99995.78;4137261;28;20639;-29
2022/05/09 00:49:52;;;;;;;9.60;7.00;;;;;;;20.09;51.49;99999.31;4141782;28;20707;-30
2022/05/09 00:52:03;;;;;;;10.10;7.43;;;;;;;20.25;51.20;99998.00;4141120;28;20284;-30
2022/05/09 00:54:06;;;;;;;9.80;7.63;;;;;;;20.57;50.02;100006.13;4138196;28;20233;-28
2022/05/09 00:56:16;;;;;;;10.57;7.57;;;;;;;20.42;50.21;100006.44;4138898;28;20695;-31
2022/05/09 00:58:24;;;;;;;10.53;7.40;;;;;;;20.57;50.37;100006.97;4141093;28;20245;-29
2022/05/09 01:00:25;;;;;;;9.63;7.80;;;;;;;20.42;50.68;100001.03;4136754;28;20224;-30
2022/05/09 01:02:28;;;;;;;10.33;7.67;;;;;;;20.21;51.17;100007.56;4140499;28;20287;-29
2022/05/09 01:04:41;;;;;;;8.27;7.13;;;;;;;20.05;51.57;100006.22;4140901;28;20237;-29
2022/05/09 01:06:44;;;;;;;8.50;7.60;;;;;;;20.05;51.42;100008.91;4137589;28;20229;-29
2022/05/09 01:08:45;;;;;;;9.23;7.33;;;;;;;19.44;52.02;100020.94;4137979;28;20233;-29
2022/05/09 01:10:48;;;;;;;11.40;8.57;;;;;;;19.64;51.70;100012.78;4140951;28;20276;-29
2022/05/09 01:12:51;;;;;;;10.93;8.00;;;;;;;20.10;51.01;100005.56;4122217;28;20233;-30
2022/05/09 01:14:54;;;;;;;9.10;7.80;;;;;;;19.52;52.69;100007.19;4123817;28;20230;-29
2022/05/09 01:17:01;;;;;;;10.17;7.87;;;;;;;19.90;51.69;100003.78;4119720;28;20215;-29
2022/05/09 01:19:16;;;;;;;9.03;8.03;;;;;;;19.95;51.26;100014.75;4120315;28;20206;-30
2022/05/09 01:21:38;;;;;;;8.40;7.50;;;;;;;19.86;51.37;100014.19;4121894;28;20237;-29
2022/05/09 01:23:40;;;;;;;8.73;7.83;;;;;;;19.83;51.71;100003.81;4131994;28;20237;-30
2022/05/09 01:25:42;;;;;;;8.87;7.63;;;;;;;19.90;51.27;100011.88;4138237;28;20287;-30
2022/05/09 01:27:46;;;;;;;8.60;7.57;;;;;;;19.96;51.41;100007.47;4140019;28;20299;-28
2022/05/09 01:29:54;;;;;;;9.67;8.57;;;;;;;20.05;51.08;100009.72;4139987;28;20248;-30
2022/05/09 01:31:58;;;;;;;9.73;7.77;;;;;;;19.80;51.42;100012.34;4136567;28;20233;-27
2022/05/09 01:34:01;;;;;;;14.03;9.00;;;;;;;19.76;51.51;100024.59;4139328;28;20245;-31
2022/05/09 01:36:11;;;;;;;11.27;7.83;;;;;;;19.64;51.98;100013.66;4140819;28;20237;-30
2022/05/09 01:38:32;;;;;;;12.50;7.93;;;;;;;20.17;51.16;100014.47;4139973;28;20893;-31
2022/05/09 01:40:34;;;;;;;10.40;7.83;;;;;;;19.69;52.09;100019.22;4140480;28;20229;-28
2022/05/09 01:42:36;;;;;;;9.63;8.13;;;;;;;19.33;52.67;100025.94;4139487;28;20287;-28
2022/05/09 01:44:38;;;;;;;10.43;8.17;;;;;;;19.45;52.67;100009.09;4139781;28;20241;-28
2022/05/09 01:51:23;;;;;;;10.03;8.50;;;;;;;19.48;52.49;100005.97;4123063;28;20234;-29
2022/05/09 01:53:25;;;;;;;10.37;9.10;;;;;;;18.89;53.24;100022.00;4123316;28;20288;-30
2022/05/09 01:55:27;;;;;;;9.97;8.53;;;;;;;19.77;51.85;100015.44;4130454;28;20233;-29
2022/05/09 01:57:28;;;;;;;11.20;8.53;;;;;;;19.17;53.03;100020.97;4139213;28;20714;-29
2022/05/09 01:59:31;;;;;;;11.80;9.07;;;;;;;19.13;53.28;100017.88;4141031;28;20291;-30
2022/05/09 02:02:00;;;;;;;10.07;8.67;;;;;;;18.80;53.90;100020.53;4138794;28;20229;-30
2022/05/09 02:04:02;;;;;;;10.03;8.73;;;;;;;19.64;52.50;100010.94;4124429;28;20269;-28
2022/05/09 02:06:07;;;;;;;10.10;8.97;;;;;;;18.97;53.42;100023.69;4139776;28;20237;-29
2022/05/09 02:08:08;;;;;;;11.87;9.27;;;;;;;19.39;52.53;100024.25;4138145;28;20249;-29
2022/05/09 02:10:10;;;;;;;11.37;8.67;;;;;;;19.51;52.34;100022.56;4135212;28;20241;-29
2022/05/09 02:12:13;;;;;;;13.00;8.70;;;;;;;19.81;51.58;100023.97;4140139;28;20299;-29
2022/05/09 02:14:15;;;;;;;11.53;8.67;;;;;;;19.18;53.19;100016.41;4139736;28;20237;-31
2022/05/09 02:16:17;;;;;;;13.77;9.47;;;;;;;19.28;52.43;100023.00;4139136;28;20233;-29
2022/05/09 02:18:18;;;;;;;11.07;9.63;;;;;;;19.43;52.25;100022.78;4140376;28;20233;-29
2022/05/09 02:20:20;;;;;;;12.30;10.50;;;;;;;19.23;52.64;100030.91;4139540;28;20236;-29
2022/05/09 02:22:22;;;;;;;12.20;10.07;;;;;;;19.34;52.70;100021.38;4140381;28;20784;-31
2022/05/09 02:24:24;;;;;;;11.63;9.63;;;;;;;19.45;52.21;100030.66;4139346;28;20241;-30
2022/05/09 02:26:25;;;;;;;12.33;9.87;;;;;;;19.35;52.46;100032.97;4139719;28;20291;-30
2022/05/09 02:28:27;;;;;;;13.73;8.73;;;;;;;19.86;51.49;100022.28;4139195;28;20241;-31
2022/05/09 02:30:29;;;;;;;11.43;9.37;;;;;;;19.81;51.04;100035.59;4140033;28;20234;-31
2022/05/09 02:32:31;;;;;;;10.47;9.20;;;;;;;18.86;53.33;100051.25;4139493;28;20238;-29
2022/05/09 02:34:33;;;;;;;12.93;9.90;;;;;;;19.29;52.66;100040.03;4138699;28;20796;-28
2022/05/09 02:36:35;;;;;;;10.93;9.03;;;;;;;19.43;51.61;100043.53;4138205;28;20241;-28
2022/05/09 02:38:37;;;;;;;10.37;9.27;;;;;;;19.28;52.54;100038.38;4135096;28;20691;-29
2022/05/09 02:40:40;;;;;;;11.63;9.93;;;;;;;18.94;52.81;100043.78;4138432;28;20314;-29
2022/05/09 02:42:41;;;;;;;12.23;10.17;;;;;;;19.51;51.80;100037.94;4138986;28;20261;-29
2022/05/09 02:44:44;;;;;;;9.73;8.73;;;;;;;19.07;52.14;100042.97;4139856;28;20303;-30
2022/05/09 02:46:45;;;;;;;11.07;8.70;;;;;;;19.09;52.77;100045.44;4139063;28;20229;-32
2022/05/09 02:48:48;;;;;;;9.90;8.90;;;;;;;19.32;52.12;100042.31;4139789;28;20301;-29
2022/05/09 02:50:49;;;;;;;11.10;9.17;;;;;;;19.41;52.00;100034.84;4124734;28;20234;-30
2022/05/09 02:52:52;;;;;;;10.70;9.40;;;;;;;19.13;52.37;100043.97;4138585;28;20237;-29
2022/05/09 02:54:54;;;;;;;13.83;9.33;;;;;;;19.39;51.99;100045.00;4139214;28;20230;-29
2022/05/09 02:56:56;;;;;;;11.80;9.47;;;;;;;18.41;54.03;100043.69;4131828;28;20218;-31
2022/05/09 02:58:57;;;;;;;10.83;9.23;;;;;;;18.48;53.87;100032.94;4138541;28;20259;-32
2022/05/09 03:00:59;;;;;;;14.50;9.70;;;;;;;19.01;53.09;100037.56;4138356;28;20280;-31
2022/05/09 03:05:22;;;;;;;10.87;9.77;;;;;;;18.72;53.33;100036.91;4137653;28;20237;-31
2022/05/09 03:07:24;;;;;;;11.57;8.50;;;;;;;18.65;53.33;100038.78;4137705;28;20241;-28
2022/05/09 03:09:25;;;;;;;12.43;10.17;;;;;;;19.25;51.95;100038.78;4137326;28;20360;-30
2022/05/09 03:11:27;;;;;;;11.40;9.50;;;;;;;18.85;53.10;100038.81;4138923;28;20230;-29
2022/05/09 03:13:29;;;;;;;10.37;8.57;;;;;;;18.92;52.33;100043.16;4138070;28;20267;-31
2022/05/09 03:15:35;;;;;;;12.00;9.13;;;;;;;18.32;53.92;100040.34;4140012;28;20702;-29
2022/05/09 03:17:37;;;;;;;12.57;9.70;;;;;;;19.29;51.43;100037.34;4139804;28;20233;-29
2022/05/09 03:19:38;;;;;;;11.97;9.57;;;;;;;18.91;52.60;100037.97;4137569;28;20256;-30
2022/05/09 03:21:40;;;;;;;10.60;9.00;;;;;;;19.00;52.01;100044.84;4135791;28;20730;-29
2022/05/09 03:23:42;;;;;;;13.10;10.03;;;;;;;18.62;53.00;100044.56;4137539;28;20299;-29
2022/05/09 03:25:44;;;;;;;10.63;9.50;;;;;;;18.57;53.19;100037.09;4138963;28;20229;-30
2022/05/09 03:27:46;;;;;;;9.73;8.70;;;;;;;18.87;52.49;100037.56;4139066;28;20245;-30
2022/05/09 03:29:48;;;;;;;10.40;9.30;;;;;;;18.94;51.98;100041.09;4139273;28;20279;-29
2022/05/09 03:31:52;;;;;;;14.20;8.90;;;;;;;18.96;52.22;100046.28;4138908;28;20238;-31
2022/05/09 03:33:53;;;;;;;11.13;9.20;;;;;;;18.84;52.41;100042.53;4137302;28;20276;-30
2022/05/09 03:35:58;;;;;;;10.13;8.53;;;;;;;18.06;53.68;100048.31;4138429;28;20714;-32
2022/05/09 03:38:00;;;;;;;11.67;8.77;;;;;;;18.83;52.71;100041.72;4137526;28;20275;-30
2022/05/09 03:40:03;;;;;;;10.43;8.87;;;;;;;18.28;53.28;100043.66;4138814;28;20821;-29
2022/05/09 03:42:06;;;;;;;10.40;9.33;;;;;;;18.99;51.83;100053.13;4135111;28;20801;-31
2022/05/09 03:44:08;;;;;;;11.90;9.40;;;;;;;18.88;51.98;100044.63;4138084;28;20264;-30
2022/05/09 03:46:12;;;;;;;12.20;9.90;;;;;;;18.52;52.87;100055.72;4136701;28;20238;-30
2022/05/09 03:48:14;;;;;;;11.00;9.43;;;;;;;18.80;52.21;100052.06;4123127;28;20234;-31
2022/05/09 03:50:16;;;;;;;11.60;9.10;;;;;;;18.47;52.88;100052.81;4140890;28;20907;-31
2022/05/09 03:52:18;;;;;;;10.50;8.97;;;;;;;18.17;53.63;100056.69;4139064;28;20291;-30
2022/05/09 03:54:19;;;;;;;13.47;8.80;;;;;;;18.39;53.43;100051.13;4140403;28;20737;-31
2022/05/09 03:56:21;;;;;;;12.27;9.03;;;;;;;18.87;52.57;100042.13;4140045;28;20303;-30
2022/05/09 03:58:23;;;;;;;9.73;8.33;;;;;;;18.44;53.42;100042.44;4142790;28;20279;-29
2022/05/09 04:00:27;;;;;;;9.97;8.47;;;;;;;18.63;52.72;100041.66;4142132;28;20740;-30
2022/05/09 04:02:29;;;;;;;12.20;8.97;;;;;;;18.69;52.47;100046.22;4140420;28;20324;-30
2022/05/09 04:04:31;;;;;;;9.57;8.30;;;;;;;18.52;52.86;100056.53;4141652;28;20245;-29
2022/05/09 04:06:33;;;;;;;11.93;9.40;;;;;;;18.82;52.28;100050.81;4141628;28;20287;-29
2022/05/09 04:08:34;;;;;;;10.70;8.87;;;;;;;18.46;52.86;100067.31;4136336;28;20647;-29
2022/05/09 04:10:40;;;;;;;13.40;9.03;;;;;;;18.64;52.66;100047.88;4140823;28;20266;-29
2022/05/09 04:12:41;;;;;;;13.27;9.47;;;;;;;18.07;53.97;100066.13;4142218;28;20241;-29
2022/05/09 04:17:04;;;;;;;11.80;9.50;;;;;;;18.91;52.17;100054.16;4120824;28;20601;-29
2022/05/09 04:19:05;;;;;;;10.37;8.67;;;;;;;18.67;52.78;100055.56;4140120;28;20236;-29
2022/05/09 04:21:09;;;;;;;12.73;10.77;;;;;;;18.37;53.49;100063.97;4141904;28;20779;-32
2022/05/09 04:23:11;;;;;;;11.03;8.90;;;;;;;18.70;52.18;100060.53;4140428;28;20240;-31
2022/05/09 04:25:13;;;;;;;10.73;9.63;;;;;;;18.70;52.73;100061.34;4141800;28;20264;-29
2022/05/09 04:27:14;;;;;;;19.47;9.40;;;;;;;18.40;53.12;100077.03;4142065;28;20241;-29
2022/05/09 04:29:16;;;;;;;10.77;8.93;;;;;;;18.53;52.79;100073.56;4139244;28;20298;-31
2022/05/09 04:31:22;;;;;;;9.80;8.80;;;;;;;18.03;54.02;100077.28;4140839;28;20237;-29
2022/05/09 04:33:24;;;;;;;11.90;8.97;;;;;;;18.07;54.36;100060.75;4140566;28;20241;-29
2022/05/09 04:35:25;;;;;;;12.43;9.03;;;;;;;18.30;53.58;100057.75;4142064;28;20233;-31
2022/05/09 04:37:27;;;;;;;10.27;8.93;;;;;;;18.13;53.45;100073.41;4141015;28;20237;-29
2022/05/09 04:39:29;;;;;;;9.80;8.37;;;;;;;18.53;52.35;100068.16;4141489;28;20245;-30
2022/05/09 04:41:32;;;;;;;10.23;8.60;;;;;;;18.30;53.13;100069.34;4143012;28;20260;-34
2022/05/09 04:43:35;;;;;;;12.73;9.43;;;;;;;18.20;53.62;100063.50;4140770;28;20249;-29
2022/05/09 04:45:37;;;;;;;10.80;8.17;;;;;;;18.35;52.87;100071.44;4140249;28;20236;-32
2022/05/09 04:47:40;;;;;;;10.27;8.20;;;;;;;18.49;53.13;100083.91;4141066;28;20270;-29
2022/05/09 04:49:42;;;;;;;10.60;9.20;;;;;;;18.72;52.52;100072.75;4135915;28;20230;-30
2022/05/09 04:51:44;;;;;;;9.87;8.83;;;;;;;18.35;53.09;100090.28;4139031;28;20221;-29
2022/05/09 04:53:49;;;;;;;10.03;8.47;;;;;;;18.09;53.51;100090.97;4140558;28;20245;-31
2022/05/09 04:55:54;;;;;;;10.70;9.30;;;;;;;17.98;54.01;100086.97;4140626;28;20241;-31
2022/05/09 04:57:56;;;;;;;10.57;8.63;;;;;;;18.32;52.83;100094.19;4136564;28;20857;-29
2022/05/09 04:59:58;;;;;;;11.53;9.30;;;;;;;18.05;54.00;100077.06;4135649;28;20281;-30
2022/05/09 05:02:00;;;;;;;10.27;8.93;;;;;;;18.14;53.89;100083.16;4139649;28;20292;-31
2022/05/09 05:04:05;;;;;;;10.23;8.37;;;;;;;17.67;54.99;100090.97;4139521;28;20229;-29
2022/05/09 05:06:07;;;;;;;9.53;8.37;;;;;;;17.97;54.16;100088.84;4140785;28;20243;-29
2022/05/09 05:08:11;;;;;;;10.97;9.23;;;;;;;18.56;52.83;100073.13;4140816;28;20295;-32
2022/05/09 05:10:13;;;;;;;12.90;9.13;;;;;;;18.66;52.92;100081.66;4139766;28;20744;-30
2022/05/09 05:12:15;;;;;;;11.00;8.80;;;;;;;17.97;54.65;100083.47;4141320;28;20229;-29
2022/05/09 05:14:16;;;;;;;11.37;8.97;;;;;;;18.52;54.08;100071.88;4140324;28;20703;-29
2022/05/09 05:16:18;;;;;;;11.27;9.67;;;;;;;18.26;54.07;100088.81;4139885;28;20263;-29
2022/05/09 05:18:23;;;;;;;9.80;8.57;;;;;;;18.14;54.23;100091.25;4140459;28;20225;-29
2022/05/09 05:20:25;;;;;;;10.97;8.80;;;;;;;18.80;53.33;100090.59;4140786;28;20229;-31
2022/05/09 05:22:27;;;;;;;12.77;9.00;;;;;;;18.41;54.07;100094.84;4136348;28;20232;-32
2022/05/09 05:24:31;;;;;;;13.07;9.67;;;;;;;18.52;53.53;100101.50;4140125;28;20300;-29
2022/05/09 05:26:33;;;;;;;10.93;8.80;;;;;;;18.68;53.07;100114.59;4141097;28;20285;-29
2022/05/09 05:28:35;;;;;;;10.20;8.93;;;;;;;18.76;52.46;100111.72;4139434;28;20229;-29
2022/05/09 05:30:37;;;;;;;10.67;8.90;;;;;;;18.82;53.10;100115.47;4141648;28;20233;-29
2022/05/09 05:32:41;;;;;;;12.83;9.30;;;;;;;18.77;52.75;100112.53;4141003;28;20229;-29
2022/05/09 05:34:43;;;;;;;12.00;9.70;;;;;;;18.54;53.65;100129.06;4133858;28;20241;-32
2022/05/09 05:36:45;;;;;;;14.47;8.50;;;;;;;19.25;52.16;100128.59;4136827;28;20233;-29
2022/05/09 05:38:51;;;;;;;9.90;8.90;;;;;;;19.09;52.61;100121.72;4141118;28;20229;-36
2022/05/09 05:40:57;;;;;;;11.50;8.80;;;;;;;18.96;52.98;100116.31;4139628;28;20271;-29
2022/05/09 05:42:59;;;;;;;9.67;8.67;;;;;;;19.12;53.03;100124.03;4140654;28;20210;-28
2022/05/09 05:45:00;;;;;;;10.83;9.03;;;;;;;18.85;53.03;100130.44;4141645;28;20631;-29
2022/05/09 05:47:11;;;;;;;13.23;8.27;;;;;;;19.73;52.24;100124.03;4140295;28;20264;-30
2022/05/09 05:49:12;;;;;;;10.70;8.77;;;;;;;19.80;51.46;100133.75;4140399;28;20300;-29
2022/05/09 05:51:14;;;;;;;10.03;8.90;;;;;;;19.53;52.66;100138.31;4137689;28;20244;-31
2022/05/09 05:53:16;;;;;;;10.30;9.07;;;;;;;19.92;51.71;100139.31;4133246;28;20968;-31
2022/05/09 05:55:19;;;;;;;10.37;8.57;;;;;;;19.33;52.94;100154.50;4138439;28;20750;-29
2022/05/09 05:57:26;;;;;;;10.47;8.57;;;;;;;20.31;51.18;100136.75;4140817;28;20265;-29
2022/05/09 05:59:28;;;;;;;10.70;8.50;;;;;;;20.46;50.57;100145.41;4140404;28;20725;-30
2022/05/09 06:01:30;;;;;;;13.23;9.30;;;;;;;20.48;50.89;100140.59;4140746;28;20292;-29
2022/05/09 06:03:32;;;;;;;10.47;8.30;;;;;;;20.45;50.62;100157.25;4140929;28;20284;-29
2022/05/09 06:05:34;;;;;;;10.13;7.93;;;;;;;20.31;51.25;100152.94;4139334;28;20576;-29
2022/05/09 06:07:37;;;;;;;9.40;8.43;;;;;;;19.91;51.95;100177.31;4138781;28;20502;-32
2022/05/09 06:09:46;;;;;;;10.07;8.70;;;;;;;19.92;51.95;100160.91;4140324;28;20308;-30
2022/05/09 06:11:48;;;;;;;11.47;9.10;;;;;;;20.17;51.14;100169.16;4138003;28;20256;-30
2022/05/09 06:13:50;;;;;;;11.80;10.03;;;;;;;20.09;52.00;100161.28;4137224;28;20229;-31
2022/05/09 06:15:51;;;;;;;9.70;8.63;;;;;;;19.76;52.32;100170.28;4139372;28;20241;-29
2022/05/09 06:17:54;;;;;;;10.53;8.87;;;;;;;19.73;52.44;100162.63;4140413;28;20229;-28
2022/05/09 06:19:56;;;;;;;10.13;9.03;;;;;;;20.35;51.52;100165.81;4139307;28;20284;-30
2022/05/09 06:21:59;;;;;;;10.63;9.50;;;;;;;19.29;53.44;100172.16;4139172;28;20237;-31
2022/05/09 06:24:04;;;;;;;10.83;9.00;;;;;;;19.90;52.32;100160.31;4139033;28;20299;-31
2022/05/09 06:26:06;;;;;;;11.83;8.80;;;;;;;20.01;52.29;100159.66;4139664;28;20349;-34
2022/05/09 06:28:07;;;;;;;12.40;9.17;;;;;;;20.00;52.05;100166.09;4140282;28;20291;-32
2022/05/09 06:30:12;;;;;;;12.40;8.80;;;;;;;19.82;52.33;100169.44;4141165;28;20291;-32
2022/05/09 06:32:18;;;;;;;10.47;8.70;;;;;;;20.22;52.21;100174.75;4133318;28;20279;-32
2022/05/09 06:34:20;;;;;;;10.47;8.50;;;;;;;20.22;51.82;100172.03;4139122;28;20240;-33
2022/05/09 06:36:22;;;;;;;11.70;9.40;;;;;;;19.67;52.79;100182.31;4138983;28;20726;-31
2022/05/09 06:38:25;;;;;;;14.43;9.87;;;;;;;20.03;52.35;100171.06;4139041;28;20280;-31
2022/05/09 06:40:29;;;;;;;11.33;9.23;;;;;;;20.82;50.58;100171.00;4139544;28;20713;-33
2022/05/09 06:42:31;;;;;;;9.97;9.00;;;;;;;20.40;51.68;100179.50;4138755;28;20336;-30
2022/05/09 06:44:32;;;;;;;11.43;9.50;;;;;;;20.50;51.39;100176.34;4139137;28;20237;-31
2022/05/09 06:46:34;;;;;;;9.17;8.17;;;;;;;21.11;50.01;100163.38;4140081;28;20655;-30
2022/05/09 06:48:36;;;;;;;10.77;8.00;;;;;;;19.97;52.18;100176.47;4139549;28;20765;-31
2022/05/09 06:50:39;;;;;;;10.37;8.90;;;;;;;20.56;51.44;100172.78;4139397;28;20236;-30
2022/05/09 06:52:42;;;;;;;10.83;8.83;;;;;;;21.45;49.63;100158.53;4138073;28;20229;-32
2022/05/09 06:55:04;;;;;;;10.83;7.80;;;;;;;21.21;50.42;100166.41;4138054;28;20236;-31
2022/05/09 06:57:06;;;;;;;10.57;8.87;;;;;;;21.81;49.30;100163.19;4140153;28;20279;-32
2022/05/09 06:59:08;;;;;;;12.40;8.93;;;;;;;20.91;51.07;100182.38;4139120;28;20446;-30
2022/05/09 07:01:18;;;;;;;9.53;8.53;;;;;;;20.95;51.11;100184.44;4138547;28;20237;-31
2022/05/09 07:03:21;;;;;;;11.93;8.20;;;;;;;20.64;51.87;100171.72;4139491;28;20268;-30
2022/05/09 07:05:23;;;;;;;9.60;8.43;;;;;;;21.11;51.51;100171.47;4138986;28;20526;-31
2022/05/09 07:07:24;;;;;;;11.57;8.83;;;;;;;21.03;50.91;100177.16;4138687;28;20241;-29
2022/05/09 07:09:26;;;;;;;11.47;8.63;;;;;;;21.74;48.94;100167.84;4138374;28;20244;-32
2022/05/09 07:11:28;;;;;;;11.53;8.47;;;;;;;21.08;51.01;100178.13;4139347;28;20478;-30
2022/05/09 07:13:30;;;;;;;10.37;7.90;;;;;;;21.46;49.76;100162.88;4139564;28;20271;-30
2022/05/09 07:15:33;;;;;;;10.13;7.97;;;;;;;21.10;50.47;100173.34;4139435;28;20233;-30
2022/05/09 07:17:35;;;;;;;9.70;8.27;;;;;;;21.28;50.76;100167.19;4134493;28;20233;-31
2022/05/09 07:19:37;;;;;;;10.17;8.17;;;;;;;21.75;49.96;100157.84;4141812;28;20245;-31
2022/05/09 07:21:39;;;;;;;10.97;8.47;;;;;;;21.28;50.40;100166.38;4142003;28;20726;-30
2022/05/09 07:23:42;;;;;;;10.80;8.13;;;;;;;20.94;51.27;100171.16;4138410;28;20237;-30
2022/05/09 07:25:44;;;;;;;10.10;7.97;;;;;;;21.66;50.20;100162.72;4142701;28;20271;-30
2022/05/09 07:27:45;;;;;;;11.67;8.63;;;;;;;21.54;50.16;100157.19;4141460;28;20668;-29
2022/05/09 07:29:47;;;;;;;10.77;8.57;;;;;;;21.48;50.58;100164.31;4142926;28;20312;-30
2022/05/09 07:31:49;;;;;;;8.93;7.70;;;;;;;21.83;50.20;100174.66;4140453;28;20748;-30
2022/05/09 07:33:51;;;;;;;9.17;8.10;;;;;;;21.61;50.87;100171.47;4141711;28;20376;-31
2022/05/09 07:35:53;;;;;;;9.50;7.30;;;;;;;21.46;50.20;100168.28;4142461;28;20233;-31
2022/05/09 07:37:55;;;;;;;11.33;7.57;;;;;;;22.26;49.00;100162.09;4142668;28;20234;-32
2022/05/09 07:40:04;;;;;;;8.43;7.50;;;;;;;21.88;49.99;100171.25;4142898;28;20236;-30
2022/05/09 07:42:08;;;;;;;10.07;8.60;;;;;;;22.19;49.48;100161.38;4141702;28;20255;-30
2022/05/09 07:44:09;;;;;;;12.40;7.77;;;;;;;21.20;50.83;100180.16;4141878;28;20279;-32
2022/05/09 07:46:11;;;;;;;9.00;7.20;;;;;;;21.63;50.39;100163.16;4141349;28;20241;-30
2022/05/09 07:48:33;;;;;;;10.47;7.93;;;;;;;21.74;49.69;100170.56;4142174;28;20283;-31
2022/05/09 07:50:36;;;;;;;10.97;7.80;;;;;;;21.34;50.37;100170.88;4141179;28;20602;-30
2022/05/09 07:52:38;;;;;;;10.10;7.63;;;;;;;21.76;50.71;100170.34;4142227;28;20776;-30
2022/05/09 07:54:40;;;;;;;9.53;7.83;;;;;;;22.06;49.82;100168.56;4140961;28;20244;-30
2022/05/09 07:56:43;;;;;;;10.10;7.73;;;;;;;22.19;50.09;100164.88;4139895;28;20260;-30
2022/05/09 07:58:45;;;;;;;9.93;7.97;;;;;;;22.27;48.93;100169.16;4141513;28;20256;-32
2022/05/09 08:00:47;;;;;;;9.30;7.23;;;;;;;22.22;49.58;100163.59;4136746;28;20295;-30
2022/05/09 08:02:49;;;;;;;11.30;7.67;;;;;;;22.29;49.77;100167.09;4142377;28;20225;-33
2022/05/09 08:04:51;;;;;;;8.20;7.13;;;;;;;22.25;49.77;100160.44;4140474;28;20233;-31
2022/05/09 08:06:53;;;;;;;9.67;7.37;;;;;;;22.32;49.46;100157.69;4140025;28;20819;-30
2022/05/09 08:08:55;;;;;;;13.00;7.30;;;;;;;21.94;50.30;100164.94;4137526;28;20746;-30
2022/05/09 08:10:58;;;;;;;10.53;7.40;;;;;;;22.30;49.17;100157.91;4137966;28;20692;-32
2022/05/09 08:13:02;;;;;;;9.37;6.90;;;;;;;22.05;50.40;100155.25;4141887;28;20212;-29
2022/05/09 08:15:05;;;;;;;9.03;7.30;;;;;;;22.63;48.99;100157.47;4138808;28;20237;-30
2022/05/09 08:17:11;;;;;;;7.87;6.90;;;;;;;22.83;49.74;100156.38;4140688;28;20777;-30
2022/05/09 08:19:14;;;;;;;9.10;7.67;;;;;;;22.34;50.49;100158.28;4142522;28;20643;-30
2022/05/09 08:21:16;;;;;;;13.20;7.33;;;;;;;22.77;48.99;100157.31;4142008;28;20237;-30
2022/05/09 08:23:19;;;;;;;8.87;7.03;;;;;;;22.57;49.49;100147.56;4140284;28;20264;-31
2022/05/09 08:25:21;;;;;;;10.17;7.50;;;;;;;22.61;49.18;100151.47;4142318;28;20241;-33
2022/05/09 08:27:23;;;;;;;9.00;7.47;;;;;;;23.10;48.88;100151.44;4140441;28;20233;-31
2022/05/09 08:29:25;;;;;;;10.70;7.20;;;;;;;22.47;49.27;100163.53;4141412;28;20241;-32
2022/05/09 08:31:27;;;;;;;9.17;6.47;;;;;;;23.25;48.56;100152.84;4140473;28;20233;-30
2022/05/09 08:33:29;;;;;;;8.63;6.77;;;;;;;23.09;48.19;100154.38;4139826;28;20251;-30
2022/05/09 08:35:32;;;;;;;8.80;7.27;;;;;;;22.89;48.55;100160.06;4141377;28;20422;-32
2022/05/09 08:37:35;;;;;;;8.63;7.00;;;;;;;22.72;49.35;100163.41;4141830;28;20229;-30
2022/05/09 08:39:36;;;;;;;9.70;6.77;;;;;;;23.36;47.96;100152.88;4141521;28;20267;-30
2022/05/09 08:41:41;;;;;;;10.00;7.53;;;;;;;22.60;49.08;100152.50;4140935;28;20651;-32
2022/05/09 08:44:05;;;;;;;11.23;7.03;;;;;;;22.83;48.94;100156.38;4135576;28;20237;-30
2022/05/09 08:46:19;;;;;;;9.60;7.37;;;;;;;22.82;48.58;100158.25;4139746;28;20513;-30
2022/05/09 08:48:36;;;;;;;9.60;7.40;;;;;;;22.55;48.68;100162.41;4138241;28;20283;-32
2022/05/09 08:50:58;;;;;;;8.18;6.68;;;;;;;23.15;49.49;100146.13;4141810;28;20673;-31
2022/05/09 08:53:07;;;;;;;8.90;7.17;;;;;;;23.08;48.70;100142.69;4137594;28;20317;-31
2022/05/09 08:55:12;;;;;;;8.73;7.03;;;;;;;23.35;47.93;100148.53;4140846;28;21274;-32
2022/05/09 08:57:19;;;;;;;7.90;6.97;;;;;;;23.10;48.36;100148.72;4142734;28;20613;-29
2022/05/09 08:59:30;;;;;;;8.07;6.90;;;;;;;23.25;48.43;100142.00;4139864;28;20234;-29
2022/05/09 09:01:38;;;;;;;10.90;6.87;;;;;;;24.18;47.14;100137.66;4140827;28;20643;-30
2022/05/09 09:03:46;;;;;;;9.35;7.22;;;;;;;23.68;47.36;100143.59;4140622;28;20710;-29
2022/05/09 09:05:52;;;;;;;8.23;7.10;;;;;;;23.16;48.92;100145.03;4139280;28;20237;-32
2022/05/09 09:08:12;;;;;;;7.90;7.10;;;;;;;24.14;46.69;100144.59;4141950;28;20241;-30
2022/05/09 09:10:35;;;;;;;8.40;6.35;;;;;;;24.06;47.76;100151.22;4139629;28;20249;-29
2022/05/09 09:12:58;;;;;;;10.05;6.70;;;;;;;24.04;47.28;100155.25;4141431;28;20605;-31
2022/05/09 09:15:06;;;;;;;8.27;6.80;;;;;;;24.15;47.52;100145.44;4127313;28;20614;-32
2022/05/09 09:17:50;;;;;;;7.87;7.00;;;;;;;24.17;47.37;100152.28;4136845;28;20209;-29
2022/05/09 09:20:10;;;;;;;10.32;6.68;;;;;;;24.04;47.38;100150.66;4130113;28;20304;-29
2022/05/09 09:22:35;;;;;;;6.78;6.07;;;;;;;24.13;47.15;100153.81;4141258;28;20232;-29
2022/05/09 09:24:54;;;;;;;10.45;6.63;;;;;;;24.57;47.88;100156.91;4140563;28;20388;-31
2022/05/09 09:27:11;;;;;;;8.93;6.88;;;;;;;24.97;46.61;100141.59;4128112;28;20304;-29
2022/05/09 09:29:18;;;;;;;7.55;6.50;;;;;;;24.37;47.14;100159.22;4138709;28;20237;-29
2022/05/09 09:31:27;;;;;;;8.05;6.07;;;;;;;24.34;46.67;100151.56;4140053;28;20229;-29
2022/05/09 09:33:29;;;;;;;8.35;6.75;;;;;;;24.27;47.43;100152.50;4139910;28;20294;-31
2022/05/09 09:35:52;;;;;;;7.55;5.90;;;;;;;24.18;48.03;100159.38;4140631;28;20755;-31
2022/05/09 09:38:08;;;;;;;7.10;6.05;;;;;;;24.75;46.45;100157.75;4139244;28;20245;-29
2022/05/09 09:40:10;;;;;;;11.63;6.03;;;;;;;24.50;47.32;100153.50;4139881;28;20248;-32
2022/05/09 09:42:12;;;;;;;8.32;6.13;;;;;;;24.16;47.83;100156.06;4139021;28;20241;-29